NCAR-RAP Real-Time Weather Data

Output produced by METARs form (20 February 2019  17:46 UTC)
found at http://weather.rap.ucar.edu/surface/
 
RJOB 201200Z 27005KT 9999 FEW020 06/M01 Q1021
RJOB 201100Z 29008KT 260V330 9999 FEW020 SCT/// 06/M01 Q1020
RJOB 201000Z 30007KT 260V350 9999 FEW020 BKN045 07/M01 Q1020
RJOB 200900Z 27007KT 9999 FEW020 BKN040 09/01 Q1019
RJOB 200800Z 28012KT 240V320 9999 FEW020 SCT040 10/01 Q1018
RJOB 200700Z 29012KT 250V340 9999 FEW020 11/02 Q1017
RJOB 200600Z 25014KT 9999 FEW020 SCT045 14/03 Q1016
RJOB 200500Z 27014KT 9999 FEW020 SCT035 14/04 Q1016
RJOB 200400Z 28011KT 250V320 9999 FEW025 SCT040 14/05 Q1016
RJOB 200300Z 28009KT 250V340 9999 FEW020 SCT040 13/04 Q1016
RJOB 200200Z 25006KT 220V300 9999 FEW015 SCT030 BKN050 13/07 Q1017
RJOB 200100Z 30006KT 250V350 9999 FEW005 SCT020 BKN050 13/09 Q1017
RJOB 200000Z VRB02KT 7000 FEW000 SCT020 BKN050 11/10 Q1017
RJOB 192300Z 26004KT 240V300 9000 PRFG FEW000 SCT030 BKN040 11/10 Q1016
RJOB 192200Z 25002KT 6000 FEW000 SCT020 BKN030 10/10 Q1016
RJOB 192115Z 26005KT 7000 FEW015 BKN020 10/10 Q1015 RMK 1CU015 6CU020 A3000
RJOB 191219Z VRB02KT 2500 BR BCFG FEW000 SCT003 BKN005 10/10 Q1014 RMK 1ST000 3ST003 5ST005 A2995 FG NE-SE AND SW
RJOB 191200Z VRB01KT 3500 R07/P2000N BR BCFG FEW000 SCT005 BKN007 11/11 Q1013
RJOB 191100Z 00000KT 3500 BR BCFG FEW000 SCT004 BKN007 11/11 Q1013
RJOB 191046Z 24003KT 3500 BR BCFG FEW000 SCT004 BKN007 11/11 Q1013 RMK 1ST000 4ST004 5ST007 A2992 FG NE-SE AND SW
RJOB 191000Z VRB02KT 4000 BR BCFG FEW000 SCT004 BKN010 11/11 Q1012
RJOB 190944Z VRB01KT 5000 BR BCFG FEW000 SCT005 BKN015 11/11 Q1012 RMK 1ST000 3ST005 5CU015 A2990 FG NE-SE AND SW
RJOB 190900Z VRB01KT 3500 BR BCFG FEW000 SCT002 BKN010 11/11 Q1012
RJOB 190839Z 34003KT 250V050 3500 BR BCFG FEW000 SCT003 BKN006 11/11 Q1011 RMK 1ST000 3ST003 5ST006 A2988 FG NE-SE AND SW
RJOB 190826Z VRB03KT 1500 R07/P2000N BR BCFG FEW000 SCT002 BKN006 11/11 Q1012 RMK 1ST000 3ST002 5ST006 A2989 FG NE-SE AND SW
RJOB 190800Z 09005KT 060V120 1000 R07/P2000N BR BCFG FEW000 SCT001 BKN007 10/10 Q1011
RJOB 190700Z 04004KT 4500 -SHRA BR BCFG FEW000 SCT003 BKN006 11/11 Q1011
RJOB 190622Z 06006KT 020V090 4000 -SHRA BR BCFG FEW000 SCT002 BKN005 10/10 Q1011 RMK 1ST000 3ST002 5ST005 A2987 FG ALL QUAD
RJOB 190600Z 08006KT 1500 R07/2000N -SHRA BR BCFG FEW000 SCT001 BKN002 10/10 Q1011
RJOB 190500Z 08007KT 3000 -SHRA BR BCFG FEW000 SCT002 BKN005 10/10 Q1013
RJOB 190431Z 05005KT 020V090 3500 -RA BR BCFG FEW000 SCT002 BKN008 09/09 Q1014 RMK 1ST000 3ST002 5ST008 A2995 FG ALL QUAD
RJOB 190400Z 07010KT 2000 -RA BR BCFG FEW000 SCT002 BKN006 09/09 Q1014
RJOB 190300Z 07009KT 1500 R07/P2000N -RA BR BCFG FEW000 SCT001 BKN002 07/07 Q1016
RJOB 190200Z 07011KT 1500 R07/P2000N -RA BR BCFG FEW000 SCT002 BKN004 06/06 Q1017
RJOB 190135Z 06010KT 1500 R07/P2000N RA BR BCFG FEW000 SCT002 BKN004 06/05 Q1018 RMK 1ST000 3ST002 5ST004 A3007 FG ALL QUAD
RJOB 190100Z 06010KT 1500 R07/P2000N -RA BR BCFG FEW000 SCT002 BKN004 06/06 Q1019
RJOB 190000Z 07008KT 2000 -RA BR BCFG FEW000 SCT002 BKN005 05/05 Q1020
RJOB 182330Z 08008KT 2000 -RA BR BCFG FEW000 SCT002 BKN005 05/04 Q1020 RMK 1ST000 3ST002 5ST005 A3013 FG ALL QUAD
RJOB 182300Z 07008KT 2000 -RA BR BCFG FEW000 SCT003 BKN006 05/04 Q1021
RJOB 182230Z 05005KT 3000 -RA BR BCFG FEW000 SCT005 BKN007 05/04 Q1021 RMK 1ST000 3ST005 5ST007 A3016 FG ALL QUAD
RJOB 182200Z 05008KT 4000 -RA BR BCFG FEW000 SCT010 BKN025 04/03 Q1021
RJOB 182115Z 04010KT 4000 -RA BR BCFG FEW000 BKN020 BKN040 04/03 Q1021 RMK 1ST000 5CU020 7SC040 A3016 FG ALL QUAD
RJOB 181200Z 09002KT 9999 FEW030 BKN100 07/M02 Q1025
RJOB 181100Z 10002KT 9999 FEW030 BKN100 07/M02 Q1025
RJOB 181000Z 14003KT 9999 FEW030 SCT110 BKN130 07/M03 Q1025
RJOB 180900Z 11003KT 9999 FEW030 BKN130 08/M03 Q1024
RJOB 180800Z 14004KT 080V170 9999 FEW030 BKN/// 09/M03 Q1023
RJOB 180700Z 11005KT 070V140 9999 FEW030 BKN/// 09/M04 Q1023
RJOB 180600Z 13004KT 070V160 9999 FEW030 BKN/// 09/M03 Q1024